Time;durP1;ratioP1;P1;durP2;ratioP2;P2;SDS_P1;SDS_P2;PMS_P1;PMS_P2;Temp;Humidity;BMP_temperature;BMP_pressure;BME280_temperature;BME280_humidity;BME280_pressure;Samples;Min_cycle;Max_cycle;Signal;HPM_P1;HPM_P2
2022/09/08 00:00:45;;;;;;;13.78;10.85;;;;;;;10.90;57.17;100841.91;1705896;82;21252;-61
2022/09/08 00:03:14;;;;;;;14.38;10.65;;;;;;;10.89;57.40;100837.58;1706382;83;21090;-61
2022/09/08 00:05:55;;;;;;;14.45;9.68;;;;;;;10.87;57.44;100839.01;1702811;83;21091;-61
2022/09/08 00:08:22;;;;;;;14.68;9.93;;;;;;;10.82;57.21;100838.51;1699824;82;20999;-62
2022/09/08 00:10:56;;;;;;;15.85;10.75;;;;;;;10.80;56.92;100834.33;1702342;83;21586;-61
2022/09/08 00:13:23;;;;;;;17.77;10.65;;;;;;;10.76;56.76;100831.09;1676736;83;21829;-61
2022/09/08 00:15:50;;;;;;;13.80;9.65;;;;;;;10.73;56.54;100834.77;1710597;82;21465;-61
2022/09/08 00:18:17;;;;;;;16.97;11.08;;;;;;;10.70;56.06;100837.63;1713373;83;21503;-61
2022/09/08 00:20:44;;;;;;;14.10;10.30;;;;;;;10.65;55.50;100834.48;1716843;82;21070;-61
2022/09/08 00:23:10;;;;;;;14.93;10.20;;;;;;;10.62;55.09;100837.82;1716708;82;21117;-61
2022/09/08 00:25:38;;;;;;;16.02;10.55;;;;;;;10.58;55.46;100840.67;1715767;82;21488;-61
2022/09/08 00:28:04;;;;;;;16.40;10.30;;;;;;;10.54;56.26;100844.49;1687048;83;21622;-62
2022/09/08 00:30:31;;;;;;;15.98;10.98;;;;;;;10.53;56.79;100841.48;1715330;83;20998;-61
2022/09/08 00:32:58;;;;;;;15.35;10.23;;;;;;;10.55;57.11;100835.62;1694506;82;21050;-61
2022/09/08 00:35:25;;;;;;;17.05;10.38;;;;;;;10.57;57.55;100832.43;1714114;82;21179;-61
2022/09/08 00:37:52;;;;;;;16.65;10.38;;;;;;;10.59;57.83;100830.52;1717274;82;21111;-61
2022/09/08 00:40:19;;;;;;;14.68;10.65;;;;;;;10.64;57.98;100825.38;1687095;83;21051;-61
2022/09/08 00:42:46;;;;;;;17.55;10.25;;;;;;;10.75;57.80;100825.45;1714860;82;21033;-61
2022/09/08 00:45:17;;;;;;;14.68;10.38;;;;;;;10.89;57.92;100817.38;1714046;82;21057;-61
2022/09/08 00:47:47;;;;;;;15.95;10.38;;;;;;;10.96;57.95;100821.22;1687871;82;21548;-61
2022/09/08 00:50:21;;;;;;;15.35;10.10;;;;;;;11.04;57.86;100819.80;1715123;82;21138;-61
2022/09/08 00:53:04;;;;;;;14.75;9.75;;;;;;;11.09;57.81;100820.30;1716999;82;21102;-61
2022/09/08 00:55:34;;;;;;;16.12;10.48;;;;;;;11.14;58.19;100820.30;1716923;82;21105;-61
2022/09/08 00:58:00;;;;;;;13.93;9.95;;;;;;;11.15;58.16;100815.89;1681589;84;21030;-61
2022/09/08 01:00:27;;;;;;;16.40;10.15;;;;;;;11.15;58.04;100811.94;1682326;84;21127;-61
2022/09/08 01:02:54;;;;;;;17.25;10.75;;;;;;;11.11;58.04;100804.75;1685785;83;22403;-61
2022/09/08 01:05:23;;;;;;;13.93;9.90;;;;;;;11.09;58.49;100805.81;1689528;83;21511;-61
2022/09/08 01:14:16;;;;;;;15.23;9.98;;;;;;;10.93;58.48;100799.06;1747824;81;21113;-62
2022/09/08 01:16:46;;;;;;;15.35;10.63;;;;;;;10.81;58.16;100799.99;1677922;83;21504;-61
2022/09/08 01:19:26;;;;;;;17.55;10.43;;;;;;;10.75;58.02;100793.86;1748180;80;21074;-61
2022/09/08 01:22:09;;;;;;;15.30;10.30;;;;;;;10.70;57.96;100793.36;1743225;81;21504;-61
2022/09/08 01:24:53;;;;;;;14.47;10.60;;;;;;;10.66;58.23;100786.63;1741393;81;20963;-61
2022/09/08 01:27:26;;;;;;;15.53;10.65;;;;;;;10.63;58.50;100789.03;1747551;81;21038;-61
2022/09/08 01:29:57;;;;;;;14.45;9.63;;;;;;;10.60;58.67;100788.77;1748723;80;21097;-61
2022/09/08 01:32:23;;;;;;;14.07;9.25;;;;;;;10.59;59.41;100790.19;1712299;82;21524;-61
2022/09/08 01:34:50;;;;;;;14.25;8.88;;;;;;;10.59;59.94;100795.00;1706612;82;21090;-61
2022/09/08 01:37:16;;;;;;;14.43;10.25;;;;;;;10.68;60.09;100797.91;1747426;80;21027;-61
2022/09/08 01:39:43;;;;;;;14.33;9.60;;;;;;;10.74;59.95;100803.56;1747021;80;21530;-62
2022/09/08 01:42:11;;;;;;;16.75;11.08;;;;;;;10.76;59.93;100802.13;1747356;82;21248;-62
2022/09/08 01:44:37;;;;;;;17.35;11.38;;;;;;;10.73;59.30;100801.03;1741872;81;21466;-62
2022/09/08 01:47:04;;;;;;;14.25;10.13;;;;;;;10.69;58.93;100803.52;1748385;81;21046;-62
2022/09/08 01:49:30;;;;;;;15.32;10.58;;;;;;;10.66;58.28;100800.65;1744876;81;21098;-61
2022/09/08 01:51:57;;;;;;;14.00;10.00;;;;;;;10.65;57.90;100806.02;1748715;80;21101;-62
2022/09/08 01:54:24;;;;;;;14.45;10.18;;;;;;;10.64;57.73;100802.56;1742761;81;21250;-61
2022/09/08 01:56:50;;;;;;;16.95;11.15;;;;;;;10.63;57.56;100807.45;1746492;80;21169;-61
2022/09/08 01:59:17;;;;;;;16.82;10.38;;;;;;;10.60;57.48;100806.35;1748530;81;21732;-62
2022/09/08 02:01:43;;;;;;;13.80;9.48;;;;;;;10.58;57.13;100798.56;1744177;80;21543;-61
2022/09/08 02:04:09;;;;;;;15.35;9.55;;;;;;;10.56;56.87;100801.80;1745746;81;21054;-61
2022/09/08 02:06:36;;;;;;;15.58;10.10;;;;;;;10.55;56.27;100801.42;1708078;83;21269;-61
2022/09/08 02:09:03;;;;;;;16.55;10.15;;;;;;;10.57;56.73;100804.80;1746416;80;21046;-62
2022/09/08 02:11:29;;;;;;;15.78;9.88;;;;;;;10.57;56.88;100800.86;1742594;81;21024;-62
2022/09/08 02:13:56;;;;;;;16.77;9.70;;;;;;;10.62;56.18;100804.44;1751318;80;21043;-62
2022/09/08 02:16:23;;;;;;;17.98;10.35;;;;;;;10.63;56.41;100802.67;1753976;81;21039;-62
2022/09/08 02:18:53;;;;;;;15.85;10.45;;;;;;;10.62;56.02;100799.66;1753021;80;21595;-62
2022/09/08 02:21:19;;;;;;;16.48;10.78;;;;;;;10.58;56.24;100791.99;1753279;81;21435;-61
2022/09/08 02:23:48;;;;;;;16.48;10.40;;;;;;;10.56;55.96;100792.58;1752093;80;21073;-61
2022/09/08 02:26:22;;;;;;;16.45;10.82;;;;;;;10.55;55.84;100792.70;1747774;80;21033;-61
2022/09/08 02:28:51;;;;;;;16.97;10.08;;;;;;;10.54;56.21;100787.92;1747279;80;21034;-62
2022/09/08 02:31:17;;;;;;;14.73;10.85;;;;;;;10.56;56.67;100795.22;1747201;80;21145;-61
2022/09/08 02:33:44;;;;;;;13.38;10.55;;;;;;;10.57;56.68;100796.05;1753278;80;22083;-61
2022/09/08 02:36:10;;;;;;;17.35;10.72;;;;;;;10.55;57.04;100785.63;1753667;81;21027;-61
2022/09/08 02:38:37;;;;;;;17.82;10.93;;;;;;;10.55;57.04;100779.54;1751546;80;21101;-62
2022/09/08 02:41:06;;;;;;;13.98;10.18;;;;;;;10.53;57.51;100782.28;1752384;81;21027;-61
2022/09/08 02:43:34;;;;;;;14.15;9.90;;;;;;;10.53;58.00;100784.91;1751078;80;21149;-61
2022/09/08 02:46:07;;;;;;;14.13;9.83;;;;;;;10.59;58.51;100781.84;1748722;80;21034;-61
2022/09/08 02:48:36;;;;;;;14.25;10.20;;;;;;;10.65;58.85;100781.02;1744444;80;21098;-61
2022/09/08 02:51:04;;;;;;;14.87;10.85;;;;;;;10.68;58.87;100778.17;1754668;80;21559;-61
2022/09/08 02:53:31;;;;;;;12.60;9.70;;;;;;;10.66;58.60;100779.59;1753665;80;21043;-62
2022/09/08 02:55:58;;;;;;;13.18;9.93;;;;;;;10.65;58.87;100782.34;1714906;82;21197;-62
2022/09/08 02:58:25;;;;;;;12.60;9.98;;;;;;;10.63;58.89;100785.08;1695315;83;21078;-61
2022/09/08 03:00:52;;;;;;;17.12;10.13;;;;;;;10.59;59.03;100781.84;1704082;83;21059;-62
2022/09/08 03:03:19;;;;;;;16.20;11.30;;;;;;;10.53;59.30;100787.55;1698700;83;21078;-61
2022/09/08 03:05:51;;;;;;;14.93;10.48;;;;;;;10.48;59.54;100787.05;1705806;82;21059;-62
2022/09/08 03:08:18;;;;;;;16.90;10.88;;;;;;;10.47;59.77;100784.03;1703613;83;21148;-61
2022/09/08 03:10:48;;;;;;;16.48;11.08;;;;;;;10.39;59.87;100781.98;1699686;82;21046;-61
2022/09/08 03:13:15;;;;;;;14.55;9.88;;;;;;;10.36;59.72;100781.38;1692691;83;21064;-61
2022/09/08 03:15:41;;;;;;;16.77;11.05;;;;;;;10.34;59.30;100785.87;1679968;84;21023;-61
2022/09/08 03:18:09;;;;;;;17.75;11.08;;;;;;;10.38;59.04;100783.41;1687711;84;21631;-62
2022/09/08 03:20:36;;;;;;;17.00;11.40;;;;;;;10.41;59.74;100785.82;1689331;83;21803;-62
2022/09/08 03:23:03;;;;;;;17.12;10.43;;;;;;;10.48;59.09;100788.36;1689977;83;21051;-62
2022/09/08 03:25:29;;;;;;;16.42;11.30;;;;;;;10.53;58.85;100780.97;1733779;81;21043;-61
2022/09/08 03:27:56;;;;;;;15.90;10.10;;;;;;;10.55;59.30;100787.43;1740015;79;21125;-61
2022/09/08 03:30:22;;;;;;;18.85;11.38;;;;;;;10.57;59.38;100795.59;1733956;81;21670;-62
2022/09/08 03:32:49;;;;;;;17.20;10.18;;;;;;;10.57;59.45;100797.36;1733072;81;22054;-61
2022/09/08 03:35:17;;;;;;;15.05;10.63;;;;;;;10.57;59.46;100798.22;1735416;81;21107;-61
2022/09/08 03:37:44;;;;;;;18.55;11.57;;;;;;;10.55;59.25;100790.89;1738169;80;21117;-62
2022/09/08 03:40:14;;;;;;;15.70;11.25;;;;;;;10.53;58.59;100795.44;1739377;81;21094;-61
2022/09/08 03:42:41;;;;;;;15.68;10.63;;;;;;;10.52;58.49;100794.23;1737235;80;21119;-61
2022/09/08 03:45:12;;;;;;;15.70;10.95;;;;;;;10.52;58.59;100790.28;1734097;81;21583;-61
2022/09/08 03:47:42;;;;;;;18.30;11.60;;;;;;;10.53;58.58;100796.75;1735776;81;21052;-61
2022/09/08 03:50:10;;;;;;;13.75;10.55;;;;;;;10.52;57.81;100796.41;1729278;81;21746;-61
2022/09/08 03:52:37;;;;;;;17.45;11.75;;;;;;;10.48;57.62;100789.67;1732065;80;21080;-62
2022/09/08 03:55:05;;;;;;;14.33;10.93;;;;;;;10.45;58.00;100795.64;1738239;80;21126;-62
2022/09/08 03:57:32;;;;;;;16.65;10.88;;;;;;;10.40;57.69;100793.34;1736413;80;21203;-62
2022/09/08 03:59:59;;;;;;;13.93;10.23;;;;;;;10.32;58.08;100786.02;1740579;80;21523;-61
2022/09/08 04:02:27;;;;;;;15.88;9.58;;;;;;;10.35;58.81;100784.94;1731070;81;21853;-62
2022/09/08 04:04:55;;;;;;;16.40;9.93;;;;;;;10.46;59.09;100786.81;1738384;81;21051;-62
2022/09/08 04:07:25;;;;;;;16.05;9.98;;;;;;;10.56;59.44;100787.81;1740001;80;21044;-61
2022/09/08 04:09:54;;;;;;;14.45;9.60;;;;;;;10.64;59.66;100785.91;1696466;82;22464;-61
2022/09/08 04:12:20;;;;;;;17.27;10.45;;;;;;;10.69;60.22;100789.04;1701871;82;21043;-62
2022/09/08 04:14:48;;;;;;;17.73;10.75;;;;;;;10.72;60.50;100787.02;1738116;81;21053;-61
2022/09/08 04:17:17;;;;;;;15.30;10.65;;;;;;;10.72;60.80;100783.55;1736350;80;21441;-61
2022/09/08 04:19:44;;;;;;;17.52;10.75;;;;;;;10.70;60.88;100790.73;1736282;81;21099;-61
2022/09/08 04:22:11;;;;;;;15.75;10.03;;;;;;;10.65;60.76;100793.69;1736063;82;21545;-61
2022/09/08 04:24:37;;;;;;;15.75;10.40;;;;;;;10.62;60.80;100794.41;1738452;81;20992;-62
2022/09/08 04:27:04;;;;;;;16.60;10.85;;;;;;;10.58;60.79;100794.62;1738540;81;21046;-63
2022/09/08 04:29:31;;;;;;;16.57;11.05;;;;;;;10.57;60.94;100805.25;1735881;80;21071;-62
2022/09/08 04:31:57;;;;;;;17.50;11.28;;;;;;;10.53;60.70;100807.28;1725005;81;20988;-61
2022/09/08 04:34:24;;;;;;;15.68;10.82;;;;;;;10.47;60.55;100809.03;1731237;81;21293;-61
2022/09/08 04:36:50;;;;;;;17.12;11.88;;;;;;;10.45;60.65;100806.99;1736586;81;21564;-61
2022/09/08 04:39:19;;;;;;;17.10;10.50;;;;;;;10.46;60.83;100810.00;1736825;81;21055;-61
2022/09/08 04:41:47;;;;;;;17.00;11.03;;;;;;;10.56;60.78;100810.17;1739025;81;21059;-61
2022/09/08 04:44:13;;;;;;;17.05;10.68;;;;;;;10.62;60.47;100810.19;1736638;80;21050;-62
2022/09/08 04:46:40;;;;;;;17.73;11.78;;;;;;;10.64;60.35;100811.77;1735937;80;21137;-61
2022/09/08 04:49:06;;;;;;;17.55;10.98;;;;;;;10.67;60.61;100808.89;1732886;80;21457;-64
2022/09/08 04:51:33;;;;;;;17.30;11.38;;;;;;;10.73;60.54;100811.56;1739356;80;21102;-64
2022/09/08 04:54:00;;;;;;;19.42;12.05;;;;;;;10.78;60.47;100810.75;1737919;81;21067;-66
2022/09/08 04:56:27;;;;;;;15.10;10.93;;;;;;;10.82;60.56;100812.67;1732632;81;21492;-65
2022/09/08 04:58:54;;;;;;;18.30;11.53;;;;;;;10.85;60.60;100806.70;1736886;81;22147;-64
2022/09/08 05:01:24;;;;;;;16.57;11.18;;;;;;;10.90;60.72;100808.50;1739592;80;21067;-64
2022/09/08 05:03:52;;;;;;;17.55;11.60;;;;;;;10.94;60.67;100813.92;1740208;80;21008;-64
2022/09/08 05:06:19;;;;;;;16.75;11.33;;;;;;;10.99;60.55;100811.41;1738542;80;21041;-63
2022/09/08 05:08:51;;;;;;;14.85;10.08;;;;;;;11.06;60.36;100810.84;1738500;80;21076;-63
2022/09/08 05:11:19;;;;;;;17.15;10.78;;;;;;;11.23;60.37;100810.02;1736477;81;21157;-62
2022/09/08 05:13:46;;;;;;;14.78;10.53;;;;;;;11.36;60.21;100810.77;1737065;81;21087;-64
2022/09/08 05:16:16;;;;;;;15.53;10.85;;;;;;;11.46;59.79;100809.10;1739786;80;21070;-65
2022/09/08 05:18:48;;;;;;;17.75;10.85;;;;;;;11.56;59.31;100813.19;1732618;80;21556;-64
2022/09/08 05:21:15;;;;;;;16.48;10.60;;;;;;;11.65;59.20;100822.17;1735835;81;21300;-60
2022/09/08 05:23:42;;;;;;;16.10;10.88;;;;;;;11.73;58.99;100815.00;1737207;80;22778;-64
2022/09/08 05:26:13;;;;;;;17.00;11.22;;;;;;;11.82;58.90;100812.98;1734554;81;21055;-62
2022/09/08 05:28:41;;;;;;;16.60;10.80;;;;;;;11.89;58.79;100811.04;1740031;81;21059;-62
2022/09/08 05:31:08;;;;;;;15.72;10.85;;;;;;;11.95;58.70;100811.05;1738716;81;20957;-62
2022/09/08 05:33:35;;;;;;;16.20;11.33;;;;;;;12.01;58.72;100814.53;1740308;80;21890;-62
2022/09/08 05:36:04;;;;;;;18.82;11.48;;;;;;;12.08;58.58;100817.03;1737181;80;21942;-63
2022/09/08 05:38:30;;;;;;;16.20;11.48;;;;;;;12.16;58.72;100819.08;1720248;81;21040;-62
2022/09/08 05:40:59;;;;;;;16.07;11.05;;;;;;;12.24;58.69;100813.20;1737498;80;21047;-62
2022/09/08 05:43:25;;;;;;;17.23;11.38;;;;;;;12.36;58.78;100819.29;1730142;82;21016;-63
2022/09/08 05:45:52;;;;;;;16.02;11.53;;;;;;;12.54;58.76;100818.26;1737444;80;21066;-62
2022/09/08 05:48:18;;;;;;;14.75;11.38;;;;;;;12.67;58.62;100808.38;1738638;81;21152;-62
2022/09/08 05:50:45;;;;;;;15.68;11.40;;;;;;;12.79;58.53;100804.74;1737114;80;21368;-63
2022/09/08 05:53:12;;;;;;;16.82;11.28;;;;;;;12.90;58.61;100809.13;1740475;82;21023;-63
2022/09/08 05:55:40;;;;;;;18.25;11.73;;;;;;;13.01;58.39;100807.75;1732979;81;21524;-63
2022/09/08 05:58:10;;;;;;;15.50;10.25;;;;;;;13.13;58.62;100808.53;1741433;81;21078;-65
2022/09/08 06:00:37;;;;;;;14.47;10.72;;;;;;;13.25;58.42;100811.11;1738953;81;21857;-64
2022/09/08 06:03:05;;;;;;;13.35;10.82;;;;;;;13.34;58.21;100809.85;1740777;81;21032;-64
2022/09/08 06:05:34;;;;;;;17.50;11.10;;;;;;;13.44;58.00;100808.59;1738085;81;21075;-65
2022/09/08 06:08:01;;;;;;;17.95;10.00;;;;;;;13.52;57.79;100811.42;1728987;82;21032;-64
2022/09/08 06:10:29;;;;;;;22.05;11.00;;;;;;;13.62;57.51;100813.29;1734366;80;21415;-65
2022/09/08 06:12:56;;;;;;;22.48;10.45;;;;;;;13.72;56.67;100818.96;1740767;81;21315;-63
2022/09/08 06:15:23;;;;;;;19.62;11.10;;;;;;;13.82;56.39;100812.39;1737940;81;21019;-64
2022/09/08 06:17:49;;;;;;;17.25;10.60;;;;;;;13.90;56.13;100811.25;1741328;80;20992;-64
2022/09/08 06:20:16;;;;;;;22.20;11.10;;;;;;;13.97;56.35;100814.66;1739700;80;21039;-64
2022/09/08 06:22:43;;;;;;;17.17;9.35;;;;;;;14.06;56.29;100812.54;1731961;80;21094;-64
2022/09/08 06:25:11;;;;;;;16.32;9.78;;;;;;;14.23;56.06;100814.52;1738999;81;21039;-64
2022/09/08 06:27:59;;;;;;;17.85;9.65;;;;;;;14.38;54.71;100809.67;1697465;82;21079;-64
2022/09/08 06:30:25;;;;;;;16.52;9.28;;;;;;;14.48;53.94;100811.84;1737334;81;21017;-64
2022/09/08 06:33:02;;;;;;;13.50;8.70;;;;;;;14.58;53.43;100818.48;1739628;82;21040;-64
2022/09/08 06:35:45;;;;;;;13.62;8.58;;;;;;;14.64;53.27;100817.11;1698555;83;21142;-64
2022/09/08 06:38:26;;;;;;;16.67;9.15;;;;;;;14.72;51.87;100820.41;1698702;83;21877;-64
2022/09/08 06:41:07;;;;;;;13.85;7.87;;;;;;;14.79;51.47;100819.72;1700750;83;21059;-65
2022/09/08 06:43:42;;;;;;;13.75;8.68;;;;;;;14.86;51.87;100823.94;1701972;83;21070;-65
2022/09/08 06:46:20;;;;;;;14.98;7.87;;;;;;;14.91;51.26;100820.41;1700007;82;21116;-64
2022/09/08 06:48:46;;;;;;;12.65;8.28;;;;;;;14.97;50.77;100825.12;1699274;83;21030;-65
2022/09/08 06:51:45;;;;;;;16.17;8.18;;;;;;;15.01;50.68;100829.66;1702085;83;21907;-64
2022/09/08 06:54:37;;;;;;;14.47;7.45;;;;;;;15.09;51.29;100834.27;1699124;83;21486;-65
2022/09/08 06:57:36;;;;;;;15.98;8.18;;;;;;;15.16;51.29;100826.09;1698351;83;21346;-65
2022/09/08 07:00:19;;;;;;;14.40;8.08;;;;;;;15.24;50.93;100828.37;1696968;83;21510;-65
2022/09/08 07:03:19;;;;;;;13.88;8.05;;;;;;;15.32;50.88;100835.62;1703064;82;21047;-65
2022/09/08 07:06:07;;;;;;;15.88;8.35;;;;;;;15.38;51.04;100837.71;1698667;83;21168;-64
2022/09/08 07:08:59;;;;;;;16.17;8.33;;;;;;;15.49;51.58;100849.12;1703231;83;21549;-65
2022/09/08 07:11:46;;;;;;;12.50;7.67;;;;;;;15.57;51.39;100849.25;1699022;83;20996;-65
2022/09/08 07:14:50;;;;;;;16.37;8.45;;;;;;;15.66;50.17;100849.70;1701897;83;21567;-65
2022/09/08 07:17:37;;;;;;;23.20;9.03;;;;;;;15.76;48.88;100845.72;1716551;82;21088;-64
2022/09/08 07:20:09;;;;;;;12.73;7.55;;;;;;;15.83;49.08;100848.62;1717636;82;21962;-64
2022/09/08 07:22:52;;;;;;;18.27;8.13;;;;;;;15.91;49.94;100853.55;1716078;83;21531;-65
2022/09/08 07:28:27;;;;;;;20.62;6.80;;;;;;;16.26;48.58;100854.64;1763503;79;22667;-66
2022/09/08 07:31:03;;;;;;;12.88;5.95;;;;;;;16.39;46.26;100854.30;1741576;81;21477;-66
2022/09/08 07:33:41;;;;;;;14.23;6.03;;;;;;;16.44;44.29;100858.66;1738305;81;26674;-66
2022/09/08 07:36:43;;;;;;;14.50;6.22;;;;;;;16.50;44.14;100859.38;1737508;81;21531;-66
2022/09/08 07:39:27;;;;;;;15.95;5.92;;;;;;;16.57;44.36;100860.11;1735022;81;21042;-66
2022/09/08 07:42:00;;;;;;;12.00;6.05;;;;;;;16.66;44.01;100857.87;1730318;81;21602;-65
2022/09/08 07:44:21;;;;;;;10.28;4.87;;;;;;;16.74;42.01;100856.63;1738886;81;21063;-66
2022/09/08 07:47:23;;;;;;;18.48;5.67;;;;;;;16.83;42.47;100861.04;1741923;81;21084;-64
2022/09/08 07:50:04;;;;;;;9.08;4.25;;;;;;;16.92;42.45;100864.63;1719482;81;21023;-64
2022/09/08 07:53:07;;;;;;;10.13;4.53;;;;;;;17.01;40.75;100859.75;1742705;80;21067;-64
2022/09/08 07:55:43;;;;;;;8.35;4.47;;;;;;;17.09;41.20;100864.28;1698490;81;21059;-65
2022/09/08 07:58:27;;;;;;;8.95;3.47;;;;;;;17.15;39.66;100862.34;1737260;81;21079;-66
2022/09/08 08:01:02;;;;;;;7.95;3.35;;;;;;;17.22;40.32;100863.39;1746647;81;21899;-67
2022/09/08 08:03:55;;;;;;;8.43;3.50;;;;;;;17.31;39.05;100855.47;1745149;80;20947;-68
2022/09/08 08:06:46;;;;;;;9.60;2.77;;;;;;;17.35;38.57;100859.00;1737582;81;22334;-67
2022/09/08 08:09:45;;;;;;;5.37;1.77;;;;;;;17.43;40.15;100858.20;1738690;81;21019;-65
2022/09/08 08:12:31;;;;;;;9.63;3.08;;;;;;;17.52;38.43;100853.30;1739858;80;21015;-67
2022/09/08 08:15:23;;;;;;;6.92;2.27;;;;;;;17.59;37.75;100850.84;1736580;81;21218;-68
2022/09/08 08:18:04;;;;;;;5.92;2.90;;;;;;;17.66;36.09;100851.88;1745272;81;21101;-68
2022/09/08 08:21:00;;;;;;;10.40;3.25;;;;;;;17.72;35.94;100845.07;1743190;81;21066;-65
2022/09/08 08:23:44;;;;;;;7.83;3.40;;;;;;;17.78;36.53;100843.12;1736571;81;21171;-66
2022/09/08 08:26:42;;;;;;;6.60;3.25;;;;;;;17.85;36.58;100844.14;1735311;81;21024;-66
2022/09/08 08:29:42;;;;;;;10.30;3.47;;;;;;;17.94;37.19;100841.08;1747086;81;21157;-66
2022/09/08 08:32:28;;;;;;;8.63;3.20;;;;;;;18.00;36.37;100840.41;1749188;80;21078;-66
2022/09/08 08:35:03;;;;;;;10.20;3.62;;;;;;;18.05;36.37;100843.43;1747675;81;21059;-67
2022/09/08 08:37:31;;;;;;;6.90;3.08;;;;;;;18.12;35.80;100838.30;1743946;81;21042;-67
2022/09/08 08:39:57;;;;;;;6.08;3.05;;;;;;;18.17;36.27;100834.17;1741193;81;20990;-67
2022/09/08 08:42:54;;;;;;;5.83;2.77;;;;;;;18.21;35.82;100834.68;1740777;81;21238;-67
2022/09/08 08:45:35;;;;;;;7.58;2.98;;;;;;;18.26;35.68;100836.87;1732152;80;21137;-67
2022/09/08 08:48:42;;;;;;;7.40;2.30;;;;;;;18.32;35.29;100838.36;1736567;81;21078;-67
2022/09/08 08:51:38;;;;;;;6.28;2.30;;;;;;;18.40;34.19;100842.06;1739528;81;21137;-67
2022/09/08 08:54:35;;;;;;;5.35;2.37;;;;;;;18.47;33.92;100835.07;1715274;81;21557;-67
2022/09/08 08:57:40;;;;;;;6.28;2.52;;;;;;;18.51;34.15;100835.92;1734759;81;21431;-67
2022/09/08 09:00:26;;;;;;;5.10;2.27;;;;;;;18.53;33.49;100827.25;1737504;81;21097;-67
2022/09/08 09:03:37;;;;;;;6.53;2.30;;;;;;;18.56;33.62;100832.27;1743457;81;21010;-66
2022/09/08 09:06:14;;;;;;;4.80;1.95;;;;;;;18.62;32.49;100827.27;1731819;81;21046;-66
2022/09/08 09:09:21;;;;;;;7.33;2.52;;;;;;;18.65;32.87;100825.61;1735285;81;21121;-68
2022/09/08 09:12:08;;;;;;;5.12;1.92;;;;;;;18.66;32.18;100832.59;1739504;80;21152;-66
2022/09/08 09:15:31;;;;;;;6.50;2.25;;;;;;;18.67;32.73;100829.77;1729835;81;21022;-65
2022/09/08 09:18:23;;;;;;;5.47;2.60;;;;;;;18.73;33.38;100829.63;1738000;81;21065;-68
2022/09/08 09:21:04;;;;;;;5.62;2.50;;;;;;;18.82;33.27;100824.61;1737281;80;21078;-67
2022/09/08 09:23:41;;;;;;;6.22;2.37;;;;;;;18.89;32.55;100824.81;1744175;81;21569;-67
2022/09/08 09:26:18;;;;;;;9.48;2.80;;;;;;;18.93;32.12;100817.66;1713840;80;21234;-68
2022/09/08 09:29:11;;;;;;;7.40;3.05;;;;;;;18.99;31.15;100824.66;1723925;80;21047;-67
2022/09/08 09:32:08;;;;;;;9.13;3.35;;;;;;;19.02;30.72;100819.81;1724882;82;21089;-67
2022/09/08 09:34:42;;;;;;;8.90;3.20;;;;;;;19.05;30.36;100818.66;1723818;81;21051;-68
2022/09/08 09:37:54;;;;;;;7.03;3.10;;;;;;;19.08;30.30;100818.30;1721468;81;21074;-68
2022/09/08 09:40:41;;;;;;;5.92;2.65;;;;;;;19.14;31.08;100814.15;1725302;82;21359;-69
2022/09/08 09:43:59;;;;;;;7.35;2.83;;;;;;;19.20;29.56;100819.64;1695587;81;21040;-69
2022/09/08 09:46:58;;;;;;;6.85;3.00;;;;;;;19.26;29.67;100815.45;1728640;82;21090;-69
2022/09/08 09:49:50;;;;;;;6.22;2.87;;;;;;;19.38;30.02;100824.77;1727573;81;21069;-68
2022/09/08 09:52:41;;;;;;;6.50;3.15;;;;;;;19.41;29.87;100828.44;1722863;81;21363;-68
2022/09/08 09:55:42;;;;;;;6.03;2.60;;;;;;;19.45;29.08;100823.58;1726158;82;21122;-65
2022/09/08 09:58:55;;;;;;;6.95;2.80;;;;;;;19.49;29.36;100823.08;1725026;82;21070;-68
2022/09/08 10:02:00;;;;;;;8.33;2.90;;;;;;;19.55;29.84;100824.25;1726216;82;21044;-66
2022/09/08 10:05:03;;;;;;;7.90;3.08;;;;;;;19.62;29.91;100823.89;1725973;82;21043;-65
2022/09/08 10:08:16;;;;;;;7.35;3.12;;;;;;;19.68;30.43;100834.38;1661979;84;21103;-68
2022/09/08 10:11:12;;;;;;;7.62;2.70;;;;;;;19.76;31.30;100840.23;1690320;83;21060;-66
2022/09/08 10:14:10;;;;;;;4.90;2.62;;;;;;;19.83;30.71;100836.69;1696865;83;21074;-65
2022/09/08 10:17:11;;;;;;;5.45;2.35;;;;;;;19.86;30.32;100833.67;1697834;83;21071;-66
2022/09/08 10:20:19;;;;;;;8.43;2.37;;;;;;;19.93;30.77;100836.48;1641000;85;21510;-68
2022/09/08 10:23:07;;;;;;;6.17;2.45;;;;;;;19.97;29.31;100839.64;1658409;85;21640;-67
2022/09/08 10:26:00;;;;;;;6.17;2.05;;;;;;;19.98;28.08;100841.31;1665870;84;21161;-66
2022/09/08 10:29:06;;;;;;;7.70;2.37;;;;;;;19.99;27.44;100843.81;1660589;85;21151;-65
2022/09/08 10:32:08;;;;;;;4.60;2.00;;;;;;;20.08;27.29;100841.11;1653230;85;21485;-65
2022/09/08 10:35:11;;;;;;;6.65;2.40;;;;;;;20.19;28.20;100836.22;1656854;84;21116;-65
2022/09/08 10:38:07;;;;;;;5.92;2.80;;;;;;;20.36;28.77;100841.47;1657781;84;21064;-65
2022/09/08 10:41:17;;;;;;;7.92;2.60;;;;;;;20.46;28.44;100844.75;1686422;82;21179;-66
2022/09/08 10:44:13;;;;;;;8.78;3.00;;;;;;;20.46;27.51;100840.74;1727865;81;21108;-66
2022/09/08 10:47:00;;;;;;;8.43;2.25;;;;;;;20.46;27.91;100838.55;1722914;82;21040;-65
2022/09/08 10:50:19;;;;;;;4.58;1.98;;;;;;;20.46;28.08;100835.40;1723785;82;21334;-66
2022/09/08 10:53:10;;;;;;;7.28;2.65;;;;;;;20.52;27.16;100838.67;1724686;81;21110;-65
2022/09/08 10:56:07;;;;;;;6.33;2.80;;;;;;;20.58;29.16;100835.30;1724477;82;21254;-65
2022/09/08 10:59:10;;;;;;;6.45;2.55;;;;;;;20.58;27.45;100835.82;1668244;82;21565;-67
2022/09/08 11:01:52;;;;;;;5.15;2.40;;;;;;;20.58;27.86;100829.96;1724436;81;21109;-67
2022/09/08 11:05:05;;;;;;;5.55;2.15;;;;;;;20.62;25.72;100838.97;1724280;81;21137;-67
2022/09/08 11:07:47;;;;;;;4.08;1.72;;;;;;;20.62;25.20;100832.28;1726900;81;21040;-66
2022/09/08 11:10:42;;;;;;;3.92;1.75;;;;;;;20.68;24.63;100834.25;1721386;81;21198;-66
2022/09/08 11:13:34;;;;;;;7.30;2.50;;;;;;;20.81;23.51;100821.64;1724935;82;21040;-67
2022/09/08 11:16:23;;;;;;;5.45;1.80;;;;;;;20.92;24.13;100823.37;1728184;82;21054;-66
2022/09/08 11:19:28;;;;;;;4.40;1.90;;;;;;;21.01;22.86;100820.13;1678443;84;21076;-66
2022/09/08 11:22:29;;;;;;;5.60;2.52;;;;;;;21.10;23.47;100822.23;1683404;85;21044;-67
2022/09/08 11:25:36;;;;;;;6.37;2.67;;;;;;;21.21;24.48;100815.61;1682757;85;21153;-66
2022/09/08 11:28:17;;;;;;;7.72;2.98;;;;;;;21.32;25.36;100805.28;1676199;83;21028;-66
2022/09/08 11:30:55;;;;;;;6.62;2.33;;;;;;;21.41;23.20;100810.55;1673528;83;21536;-66
2022/09/08 11:34:04;;;;;;;8.45;3.40;;;;;;;21.41;23.00;100807.88;1711310;82;21105;-65
2022/09/08 11:37:04;;;;;;;9.63;3.85;;;;;;;21.41;23.74;100814.05;1705895;82;21125;-67
2022/09/08 11:40:20;;;;;;;8.88;3.90;;;;;;;21.45;23.90;100808.67;1711977;83;23421;-66
2022/09/08 11:42:58;;;;;;;8.53;4.25;;;;;;;21.50;23.84;100808.12;1710995;82;21073;-67
2022/09/08 11:45:49;;;;;;;7.28;3.25;;;;;;;21.59;23.71;100796.33;1708883;82;21105;-67
2022/09/08 11:48:49;;;;;;;9.63;4.20;;;;;;;21.66;23.59;100797.23;1714339;82;21071;-68
2022/09/08 11:51:39;;;;;;;7.08;3.60;;;;;;;21.74;24.91;100800.83;1707631;82;21039;-68
2022/09/08 11:54:20;;;;;;;6.62;3.00;;;;;;;21.83;23.77;100797.05;1713156;82;21143;-67
2022/09/08 11:57:08;;;;;;;5.03;3.10;;;;;;;21.88;22.42;100798.13;1701288;82;21022;-66
2022/09/08 12:00:00;;;;;;;8.58;4.10;;;;;;;21.96;22.13;100802.56;1654163;85;21621;-67
2022/09/08 12:02:47;;;;;;;10.65;4.20;;;;;;;22.09;22.15;100800.56;1709255;82;21503;-65
2022/09/08 12:05:54;;;;;;;12.13;5.67;;;;;;;22.15;22.67;100789.59;1710854;82;21067;-67
2022/09/08 12:08:30;;;;;;;;;;;;;;;22.14;23.35;100787.42;1709607;82;22997;-67
2022/09/08 12:11:27;;;;;;;10.38;5.05;;;;;;;22.15;22.53;100790.93;1698243;83;20477;-67
2022/09/08 12:14:21;;;;;;;12.00;5.53;;;;;;;22.11;23.03;100792.31;1706996;82;21130;-67
2022/09/08 12:17:27;;;;;;;13.68;7.62;;;;;;;22.18;23.35;100786.53;1710492;82;21471;-67